createdAt,value
2022-11-03T00:02:20.581Z,26.30
2022-11-03T00:04:48.892Z,34.30
2022-11-03T00:07:22.130Z,28.20
2022-11-03T00:09:50.381Z,25.20
2022-11-03T00:12:18.559Z,25.20
2022-11-03T00:14:46.839Z,20.80
2022-11-03T00:17:15.054Z,33.10
2022-11-03T00:19:43.134Z,29.40
2022-11-03T00:22:11.473Z,18.50
2022-11-03T00:24:39.534Z,26.30
2022-11-03T00:27:07.570Z,31.20
2022-11-03T00:29:36.532Z,28.30
2022-11-03T00:32:04.823Z,28.10
2022-11-03T00:34:32.987Z,23.90
2022-11-03T00:37:01.238Z,26.90
2022-11-03T00:39:29.331Z,27.50
2022-11-03T00:41:59.283Z,22.10
2022-11-03T00:44:27.549Z,21.50
2022-11-03T00:46:56.478Z,27.80
2022-11-03T00:49:24.619Z,27.70
2022-11-03T00:52:11.121Z,31.90
2022-11-03T00:54:39.483Z,24.60
2022-11-03T00:57:07.553Z,20.80
2022-11-03T01:03:16.621Z,20.20
2022-11-03T01:06:03.934Z,28.10
2022-11-03T01:08:36.382Z,28.60
2022-11-03T01:11:32.856Z,31.20
2022-11-03T01:14:01.448Z,32.80
2022-11-03T01:16:30.703Z,26.40
2022-11-03T01:18:59.663Z,34.10
2022-11-03T01:21:28.431Z,34.60
2022-11-03T01:23:57.273Z,32.50
2022-11-03T01:26:25.662Z,36.70
2022-11-03T01:28:54.978Z,38.80
2022-11-03T01:31:26.135Z,32.10
2022-11-03T01:33:55.949Z,23.10
2022-11-03T01:36:24.839Z,32.80
2022-11-03T01:38:56.197Z,37.60
2022-11-03T01:41:27.703Z,42.00
2022-11-03T01:44:34.197Z,27.30
2022-11-03T01:47:19.413Z,30.30
2022-11-03T01:49:54.929Z,27.50
2022-11-03T01:52:36.844Z,23.90
2022-11-03T01:55:13.696Z,28.30
2022-11-03T01:57:52.320Z,34.30
2022-11-03T02:00:21.371Z,25.20
2022-11-03T02:02:50.634Z,28.80
2022-11-03T02:05:23.785Z,32.20
2022-11-03T02:08:00.806Z,23.00
2022-11-03T02:10:29.092Z,37.30
2022-11-03T02:12:58.066Z,34.00
2022-11-03T02:15:27.672Z,34.70
2022-11-03T02:17:58.007Z,32.30
2022-11-03T02:20:33.354Z,25.20
2022-11-03T02:23:18.442Z,36.30
2022-11-03T02:25:48.220Z,38.10
2022-11-03T02:28:20.106Z,35.70
2022-11-03T02:30:51.162Z,37.80
2022-11-03T02:33:30.721Z,28.20
2022-11-03T02:36:02.854Z,33.70
2022-11-03T02:38:34.686Z,24.30
2022-11-03T02:41:07.845Z,39.40
2022-11-03T02:43:36.755Z,25.90
2022-11-03T02:46:09.022Z,24.80
2022-11-03T02:48:37.647Z,37.50
2022-11-03T02:51:05.886Z,35.80
2022-11-03T02:53:40.886Z,33.70
2022-11-03T02:56:21.115Z,30.10
2022-11-03T02:59:03.048Z,28.60
2022-11-03T03:01:47.019Z,34.00
2022-11-03T03:04:30.063Z,25.60
2022-11-03T03:07:03.061Z,36.60
2022-11-03T03:09:37.603Z,37.10
2022-11-03T03:12:10.842Z,30.50
2022-11-03T03:14:42.359Z,34.30
2022-11-03T03:17:16.239Z,39.70
2022-11-03T03:20:01.402Z,24.10
2022-11-03T03:22:38.142Z,30.20
2022-11-03T03:25:19.018Z,30.80
2022-11-03T03:27:51.600Z,23.90
2022-11-03T03:30:19.916Z,22.40
2022-11-03T03:32:51.321Z,33.70
2022-11-03T03:35:24.913Z,19.00
2022-11-03T03:37:59.297Z,26.50
2022-11-03T03:40:41.171Z,30.50
2022-11-03T03:43:12.613Z,26.00
2022-11-03T03:45:45.795Z,31.60
2022-11-03T03:48:13.997Z,32.10
2022-11-03T03:50:44.430Z,28.10
2022-11-03T03:53:13.441Z,32.50
2022-11-03T03:55:48.650Z,21.70
2022-11-03T03:58:17.687Z,27.10
2022-11-03T04:00:46.169Z,30.00
2022-11-03T04:03:21.554Z,31.00
2022-11-03T04:05:50.844Z,33.50
2022-11-03T04:08:19.815Z,21.70
2022-11-03T04:11:06.264Z,20.20
2022-11-03T04:14:12.041Z,21.40
2022-11-03T04:16:58.596Z,21.70
2022-11-03T04:19:45.504Z,25.40
2022-11-03T04:22:16.450Z,25.70
2022-11-03T04:24:50.874Z,25.40
2022-11-03T04:27:27.847Z,20.90
2022-11-03T04:30:10.293Z,28.70
2022-11-03T04:32:38.669Z,25.60
2022-11-03T04:35:15.572Z,24.90
2022-11-03T04:37:47.985Z,18.20
2022-11-03T04:42:46.506Z,26.90
2022-11-03T04:45:14.829Z,21.10
2022-11-03T04:47:43.036Z,21.40
2022-11-03T04:50:23.425Z,23.70
2022-11-03T04:52:59.496Z,34.60
2022-11-03T04:55:28.105Z,25.90
2022-11-03T04:58:11.201Z,19.10
2022-11-03T05:00:40.038Z,25.40
2022-11-03T05:03:15.923Z,25.90
2022-11-03T05:05:44.042Z,27.10
2022-11-03T05:08:13.001Z,23.00
2022-11-03T05:10:40.994Z,24.70
2022-11-03T05:13:20.114Z,25.80
2022-11-03T05:15:50.122Z,38.10
2022-11-03T05:18:27.340Z,32.10
2022-11-03T05:21:07.884Z,25.50
2022-11-03T05:23:40.686Z,27.60
2022-11-03T05:28:56.017Z,33.10
2022-11-03T05:31:29.854Z,35.50
2022-11-03T05:34:03.256Z,30.00
2022-11-03T05:36:33.514Z,29.00
2022-11-03T05:39:39.678Z,29.00
2022-11-03T05:42:28.617Z,30.00
2022-11-03T05:44:57.885Z,32.10
2022-11-03T05:47:30.823Z,30.40
2022-11-03T05:50:07.990Z,25.20
2022-11-03T05:52:36.355Z,19.40
2022-11-03T05:55:04.977Z,21.90
2022-11-03T05:57:39.327Z,27.90
2022-11-03T06:00:31.659Z,21.60
2022-11-03T06:03:01.231Z,31.30
2022-11-03T06:05:33.620Z,27.80
2022-11-03T06:08:13.200Z,25.80
2022-11-03T06:10:55.290Z,30.10
2022-11-03T06:13:31.315Z,33.30
2022-11-03T06:16:12.883Z,29.20
2022-11-03T06:18:41.027Z,33.70
2022-11-03T06:21:19.427Z,27.20
2022-11-03T06:23:47.756Z,27.60
2022-11-03T06:26:31.304Z,29.70
2022-11-03T06:29:00.243Z,21.40
2022-11-03T06:31:31.135Z,21.00
2022-11-03T06:33:59.955Z,26.60
2022-11-03T06:36:38.301Z,28.40
2022-11-03T06:39:39.191Z,27.90
2022-11-03T06:42:19.986Z,22.00
2022-11-03T06:44:51.582Z,24.10
2022-11-03T06:47:36.525Z,24.90
2022-11-03T06:50:31.637Z,33.60
2022-11-03T06:53:14.289Z,22.50
2022-11-03T06:58:32.489Z,28.10
2022-11-03T07:01:17.248Z,22.70
2022-11-03T07:03:46.786Z,19.60
2022-11-03T07:06:34.713Z,24.50
2022-11-03T07:09:07.494Z,21.90
2022-11-03T07:11:52.571Z,21.90
2022-11-03T07:14:37.932Z,19.30
2022-11-03T07:17:17.315Z,26.10
2022-11-03T07:19:46.082Z,28.10
2022-11-03T07:22:47.913Z,21.90
2022-11-03T07:25:19.896Z,21.00
2022-11-03T07:27:54.590Z,31.10
2022-11-03T07:30:34.946Z,20.70
2022-11-03T07:33:32.425Z,29.80
2022-11-03T07:36:16.674Z,29.30
2022-11-03T07:38:49.579Z,30.30
2022-11-03T07:41:36.812Z,35.90
2022-11-03T07:44:14.162Z,28.50
2022-11-03T07:46:54.638Z,23.00
2022-11-03T07:49:30.965Z,23.30
2022-11-03T07:52:00.211Z,18.00
2022-11-03T07:54:36.188Z,24.10
2022-11-03T07:57:12.190Z,24.20
2022-11-03T07:59:45.788Z,25.60
2022-11-03T08:02:30.329Z,22.80
2022-11-03T08:04:59.475Z,33.00
2022-11-03T08:07:28.644Z,29.70
2022-11-03T08:09:57.162Z,28.00
2022-11-03T08:12:25.565Z,22.00
2022-11-03T08:15:01.466Z,28.00
2022-11-03T08:17:29.884Z,20.30
2022-11-03T08:19:58.933Z,22.00
2022-11-03T08:22:29.742Z,29.30
2022-11-03T08:24:58.174Z,35.20
2022-11-03T08:27:27.997Z,25.60
2022-11-03T08:29:57.507Z,25.00
2022-11-03T08:32:26.055Z,24.20
2022-11-03T08:34:54.616Z,24.50
2022-11-03T08:37:22.929Z,22.90
2022-11-03T08:39:51.333Z,28.40
2022-11-03T08:42:20.004Z,24.20
2022-11-03T08:44:48.613Z,31.60
2022-11-03T08:47:16.961Z,28.70
2022-11-03T08:49:55.678Z,27.90
2022-11-03T08:52:24.640Z,47.10
2022-11-03T08:54:53.491Z,39.40
2022-11-03T08:57:21.988Z,29.30
2022-11-03T08:59:52.709Z,30.70
2022-11-03T09:02:21.232Z,23.10
2022-11-03T09:04:49.791Z,26.20
2022-11-03T09:07:18.549Z,26.50
2022-11-03T09:12:39.494Z,34.10
2022-11-03T09:15:11.048Z,24.00
2022-11-03T09:17:44.799Z,26.80
2022-11-03T09:20:22.047Z,23.80
2022-11-03T09:22:56.258Z,24.60
2022-11-03T09:25:25.031Z,19.30
2022-11-03T09:28:05.914Z,31.40
2022-11-03T09:30:37.941Z,23.80
2022-11-03T09:33:07.165Z,22.00
2022-11-03T09:35:35.638Z,29.70
2022-11-03T09:38:08.324Z,20.80
2022-11-03T09:43:16.212Z,28.20
2022-11-03T09:45:51.229Z,23.80
2022-11-03T09:48:21.640Z,26.60
2022-11-03T09:50:59.521Z,19.80
2022-11-03T09:53:28.112Z,29.60
2022-11-03T09:56:01.183Z,37.50
2022-11-03T09:58:33.639Z,21.50
2022-11-03T10:01:13.278Z,30.10
2022-11-03T10:06:12.887Z,19.50
2022-11-03T10:08:46.867Z,31.30
2022-11-03T10:11:25.053Z,33.30
2022-11-03T10:13:58.878Z,27.30
2022-11-03T10:16:29.073Z,27.10
2022-11-03T10:21:38.764Z,22.80
2022-11-03T10:24:11.489Z,28.20
2022-11-03T10:26:57.948Z,27.90
2022-11-03T10:29:29.013Z,29.00
2022-11-03T10:32:01.133Z,42.50
2022-11-03T10:34:41.653Z,32.30
2022-11-03T10:37:23.090Z,27.00
2022-11-03T10:40:07.154Z,33.80
2022-11-03T10:42:41.842Z,25.80
2022-11-03T10:45:22.132Z,37.00
2022-11-03T10:48:11.184Z,29.90
2022-11-03T10:50:45.060Z,29.20
2022-11-03T10:53:27.991Z,27.20
2022-11-03T10:55:56.113Z,27.00
2022-11-03T10:58:25.166Z,32.00
2022-11-03T11:00:53.628Z,29.70
2022-11-03T11:03:25.277Z,28.00
2022-11-03T11:05:53.738Z,26.20
2022-11-03T11:08:27.021Z,26.10
2022-11-03T11:10:56.436Z,27.20
2022-11-03T11:13:36.045Z,25.20
2022-11-03T11:16:04.516Z,23.20
2022-11-03T11:18:32.892Z,23.00
2022-11-03T11:21:22.153Z,26.50
2022-11-03T11:23:52.962Z,21.10
2022-11-03T11:26:29.757Z,23.80
2022-11-03T11:29:10.234Z,28.30
2022-11-03T11:31:39.086Z,20.70
2022-11-03T11:34:10.077Z,21.20
2022-11-03T11:36:45.438Z,25.40
2022-11-03T11:39:35.972Z,27.00
2022-11-03T11:42:17.572Z,21.80
2022-11-03T11:45:03.051Z,22.20
2022-11-03T11:47:40.556Z,35.70
2022-11-03T11:50:11.666Z,19.70
2022-11-03T11:52:50.337Z,22.00
2022-11-03T11:55:32.234Z,18.90
2022-11-03T11:58:02.509Z,19.10
2022-11-03T12:00:33.936Z,21.40
2022-11-03T12:03:09.037Z,21.90
2022-11-03T12:05:39.677Z,25.30
2022-11-03T12:08:30.006Z,26.50
2022-11-03T12:11:07.507Z,29.30
2022-11-03T12:13:47.708Z,34.60
2022-11-03T12:16:34.398Z,26.40
2022-11-03T12:19:33.477Z,40.30
2022-11-03T12:24:33.005Z,27.20
2022-11-03T12:27:01.834Z,23.40
2022-11-03T12:29:29.930Z,37.60
2022-11-03T12:31:58.189Z,21.10
2022-11-03T12:34:28.711Z,28.30
2022-11-03T12:36:58.424Z,23.70
2022-11-03T12:39:27.014Z,29.90
2022-11-03T12:41:55.341Z,28.00
2022-11-03T12:44:23.480Z,24.70
2022-11-03T12:46:59.367Z,30.40
2022-11-03T12:49:27.567Z,28.10
2022-11-03T12:51:55.677Z,28.00
2022-11-03T12:54:23.835Z,28.80
2022-11-03T12:56:53.392Z,34.70
2022-11-03T12:59:21.426Z,31.70
2022-11-03T13:01:49.676Z,40.20
2022-11-03T13:04:17.914Z,28.10
2022-11-03T13:06:45.998Z,42.30
2022-11-03T13:09:14.160Z,27.00
2022-11-03T13:12:05.629Z,26.70
2022-11-03T13:14:33.787Z,35.30
2022-11-03T13:17:03.959Z,30.90
2022-11-03T13:19:32.237Z,26.70
2022-11-03T13:22:00.411Z,39.10
2022-11-03T13:24:28.943Z,25.00
2022-11-03T13:26:57.114Z,25.50
2022-11-03T13:29:25.297Z,25.40
2022-11-03T13:31:53.470Z,31.20
2022-11-03T13:34:21.757Z,29.00
2022-11-03T13:36:50.042Z,25.30
2022-11-03T13:39:17.970Z,29.90
2022-11-03T13:41:45.921Z,29.60
2022-11-03T13:44:14.250Z,27.50
2022-11-03T13:46:42.228Z,27.60
2022-11-03T13:51:58.418Z,28.00
2022-11-03T14:00:05.604Z,29.30
2022-11-03T14:05:29.328Z,30.30
2022-11-03T14:07:57.404Z,35.90
2022-11-03T14:10:25.363Z,27.40
2022-11-03T14:12:53.408Z,32.10
2022-11-03T14:15:22.530Z,31.50
2022-11-03T14:17:50.433Z,36.80
2022-11-03T14:20:18.683Z,33.60
2022-11-03T14:22:46.843Z,29.50
2022-11-03T14:25:14.828Z,26.60
2022-11-03T14:27:43.653Z,28.30
2022-11-03T14:30:12.513Z,31.70
2022-11-03T14:32:40.545Z,30.10
2022-11-03T14:35:15.864Z,25.00
2022-11-03T14:37:43.906Z,28.50
2022-11-03T14:40:31.900Z,36.30
2022-11-03T14:43:00.928Z,43.30
2022-11-03T14:45:29.104Z,36.10
2022-11-03T14:47:58.617Z,33.20
2022-11-03T14:50:26.639Z,40.90
2022-11-03T14:52:57.437Z,35.40
2022-11-03T14:55:27.953Z,30.80
2022-11-03T14:57:56.007Z,40.30
2022-11-03T15:00:23.984Z,21.40
2022-11-03T15:02:51.954Z,26.00
2022-11-03T15:05:38.452Z,42.00
2022-11-03T15:08:10.712Z,43.40
2022-11-03T15:10:38.759Z,35.80
2022-11-03T15:13:07.294Z,34.00
2022-11-03T15:15:36.339Z,52.80
2022-11-03T15:18:04.705Z,45.30
2022-11-03T15:20:35.602Z,55.40
2022-11-03T15:25:56.213Z,46.30
2022-11-03T15:28:24.375Z,49.00
2022-11-03T15:30:52.369Z,58.40
2022-11-03T15:33:20.394Z,61.30
2022-11-03T15:35:48.517Z,59.30
2022-11-03T15:38:16.782Z,57.00
2022-11-03T15:40:45.022Z,47.70
2022-11-03T15:43:13.167Z,70.90
2022-11-03T15:45:41.725Z,69.80
2022-11-03T15:48:09.964Z,50.20
2022-11-03T15:50:46.591Z,60.50
2022-11-03T15:53:14.539Z,57.70
2022-11-03T15:55:42.491Z,51.40
2022-11-03T15:58:10.756Z,61.00
2022-11-03T16:00:38.880Z,84.20
2022-11-03T16:03:06.987Z,82.80
2022-11-03T16:05:35.086Z,84.10
2022-11-03T16:08:03.222Z,67.10
2022-11-03T16:10:31.318Z,80.40
2022-11-03T16:12:59.345Z,81.90
2022-11-03T16:15:27.327Z,78.30
2022-11-03T16:18:02.733Z,69.60
2022-11-03T16:20:31.101Z,49.50
2022-11-03T16:22:59.205Z,51.60
2022-11-03T16:25:27.283Z,68.10
2022-11-03T16:27:55.275Z,53.80
2022-11-03T16:30:23.484Z,102.10
2022-11-03T16:32:53.496Z,94.30
2022-11-03T16:35:23.525Z,66.80
2022-11-03T16:37:51.489Z,100.20
2022-11-03T16:40:20.289Z,103.10
2022-11-03T16:42:48.566Z,96.30
2022-11-03T16:45:22.191Z,59.40
2022-11-03T16:48:00.640Z,91.90
2022-11-03T16:50:28.618Z,100.10
2022-11-03T16:52:57.340Z,97.30
2022-11-03T16:55:25.352Z,82.70
2022-11-03T16:57:53.339Z,95.00
2022-11-03T17:00:21.498Z,83.00
2022-11-03T17:02:49.883Z,96.60
2022-11-03T17:05:19.979Z,83.80
2022-11-03T17:07:53.718Z,85.30
2022-11-03T17:10:32.616Z,85.70
2022-11-03T17:13:00.757Z,84.20
2022-11-03T17:15:28.806Z,71.20
2022-11-03T17:17:56.867Z,55.40
2022-11-03T17:20:24.865Z,58.50
2022-11-03T17:22:53.254Z,50.90
2022-11-03T17:25:21.224Z,97.60
2022-11-03T17:27:55.369Z,102.40
2022-11-03T17:30:25.735Z,78.60
2022-11-03T17:33:01.399Z,61.00
2022-11-03T17:35:39.641Z,82.10
2022-11-03T17:38:17.958Z,93.00
2022-11-03T17:40:48.813Z,71.30
2022-11-03T17:43:28.606Z,93.00
2022-11-03T17:45:56.809Z,88.10
2022-11-03T17:48:33.305Z,70.40
2022-11-03T17:51:01.802Z,57.90
2022-11-03T17:53:32.966Z,84.90
2022-11-03T17:58:50.428Z,62.00
2022-11-03T18:01:27.664Z,56.70
2022-11-03T18:04:06.129Z,70.70
2022-11-03T18:06:39.188Z,61.90
2022-11-03T18:09:07.366Z,49.20
2022-11-03T18:11:57.329Z,74.90
2022-11-03T18:14:28.952Z,80.20
2022-11-03T18:16:57.592Z,80.50
2022-11-03T18:19:25.855Z,70.50
2022-11-03T18:21:54.071Z,61.50
2022-11-03T18:24:22.176Z,45.30
2022-11-03T18:26:50.365Z,43.90
2022-11-03T18:29:18.417Z,53.30
2022-11-03T18:31:49.741Z,46.20
2022-11-03T18:34:28.354Z,40.60
2022-11-03T18:36:56.472Z,44.90
2022-11-03T18:39:26.364Z,46.10
2022-11-03T18:41:54.605Z,64.30
2022-11-03T18:44:31.735Z,57.40
2022-11-03T18:47:13.796Z,62.20
2022-11-03T18:49:44.399Z,52.80
2022-11-03T18:52:18.047Z,85.70
2022-11-03T18:54:56.740Z,78.20
2022-11-03T18:57:28.282Z,68.10
2022-11-03T18:59:57.927Z,64.40
2022-11-03T19:02:28.393Z,41.90
2022-11-03T19:04:57.162Z,75.50
2022-11-03T19:07:45.386Z,55.00
2022-11-03T19:10:23.657Z,84.40
2022-11-03T19:12:56.665Z,69.50
2022-11-03T19:15:26.457Z,49.50
2022-11-03T19:18:12.133Z,42.10
2022-11-03T19:20:43.067Z,87.60
2022-11-03T19:23:16.732Z,103.40
2022-11-03T19:26:00.481Z,107.60
2022-11-03T19:28:34.783Z,63.20
2022-11-03T19:31:23.034Z,75.10
2022-11-03T19:34:01.317Z,74.40
2022-11-03T19:36:37.435Z,82.30
2022-11-03T19:39:31.323Z,83.80
2022-11-03T19:42:38.339Z,73.60
2022-11-03T19:45:12.366Z,79.10
2022-11-03T19:50:49.342Z,74.70
2022-11-03T19:53:34.194Z,75.30
2022-11-03T19:56:05.441Z,49.50
2022-11-03T19:58:35.671Z,54.00
2022-11-03T20:01:08.920Z,78.60
2022-11-03T20:03:43.820Z,78.10
2022-11-03T20:06:18.985Z,70.00
2022-11-03T20:08:50.749Z,93.70
2022-11-03T20:11:19.827Z,99.20
2022-11-03T20:13:57.474Z,93.50
2022-11-03T20:16:26.272Z,95.10
2022-11-03T20:18:56.072Z,95.70
2022-11-03T20:21:31.360Z,79.20
2022-11-03T20:24:17.535Z,106.40
2022-11-03T20:26:46.124Z,51.90
2022-11-03T20:29:16.648Z,49.50
2022-11-03T20:31:46.248Z,36.90
2022-11-03T20:36:52.868Z,67.60
2022-11-03T20:39:22.141Z,71.40
2022-11-03T20:41:57.297Z,69.30
2022-11-03T20:44:26.239Z,64.00
2022-11-03T20:47:14.889Z,45.10
2022-11-03T20:49:54.028Z,65.20
2022-11-03T20:52:23.269Z,65.30
2022-11-03T20:54:54.374Z,77.60
2022-11-03T20:57:22.860Z,72.00
2022-11-03T20:59:51.852Z,72.50
2022-11-03T21:02:21.474Z,74.90
2022-11-03T21:04:51.548Z,88.80
2022-11-03T21:07:20.669Z,59.80
2022-11-03T21:09:49.794Z,84.20
2022-11-03T21:12:19.301Z,71.60
2022-11-03T21:15:08.693Z,90.90
2022-11-03T21:17:56.710Z,61.20
2022-11-03T21:20:25.785Z,89.10
2022-11-03T21:22:54.791Z,59.20
2022-11-03T21:25:25.283Z,80.00
2022-11-03T21:27:55.038Z,48.60
2022-11-03T21:30:33.192Z,62.70
2022-11-03T21:33:02.435Z,83.40
2022-11-03T21:35:31.098Z,85.80
2022-11-03T21:38:00.717Z,60.40
2022-11-03T21:40:29.768Z,77.80
2022-11-03T21:43:16.746Z,68.70
2022-11-03T21:45:45.498Z,54.50
2022-11-03T21:48:33.129Z,58.80
2022-11-03T21:51:05.099Z,84.10
2022-11-03T21:53:34.327Z,85.40
2022-11-03T21:56:03.850Z,82.60
2022-11-03T21:58:41.888Z,82.60
2022-11-03T22:01:10.777Z,86.00
2022-11-03T22:03:39.594Z,58.30
2022-11-03T22:06:10.140Z,42.00
2022-11-03T22:08:39.018Z,79.90
2022-11-03T22:11:22.551Z,51.10
2022-11-03T22:13:59.667Z,78.80
2022-11-03T22:16:37.798Z,53.80
2022-11-03T22:19:32.121Z,96.10
2022-11-03T22:22:20.905Z,84.20
2022-11-03T22:25:07.682Z,99.70
2022-11-03T22:27:36.020Z,75.80
2022-11-03T22:30:23.315Z,101.30
2022-11-03T22:32:53.985Z,88.20
2022-11-03T22:35:48.843Z,123.00
2022-11-03T22:38:18.788Z,143.00
2022-11-03T22:41:06.163Z,146.70
2022-11-03T22:43:52.920Z,142.50
2022-11-03T22:46:23.399Z,134.00
2022-11-03T22:48:51.471Z,123.10
2022-11-03T22:51:19.700Z,114.30
2022-11-03T22:54:06.580Z,64.70
2022-11-03T22:56:34.665Z,90.90
2022-11-03T22:59:03.136Z,92.60
2022-11-03T23:01:31.641Z,74.60
2022-11-03T23:04:01.100Z,53.00
2022-11-03T23:06:33.881Z,104.70
2022-11-03T23:09:02.088Z,73.80
2022-11-03T23:11:35.252Z,84.90
2022-11-03T23:14:11.727Z,83.90
2022-11-03T23:16:42.463Z,85.70
2022-11-03T23:19:31.250Z,83.60
2022-11-03T23:22:00.044Z,146.50
2022-11-03T23:24:46.693Z,155.10
2022-11-03T23:27:14.916Z,109.00
2022-11-03T23:29:43.081Z,88.70
2022-11-03T23:32:11.428Z,56.30
2022-11-03T23:34:39.894Z,52.00
2022-11-03T23:37:07.910Z,61.10
2022-11-03T23:39:35.977Z,91.40
2022-11-03T23:42:04.500Z,65.50
2022-11-03T23:44:52.653Z,41.70
2022-11-03T23:47:39.615Z,31.60
2022-11-03T23:50:08.542Z,85.90
2022-11-03T23:52:36.703Z,100.20
2022-11-03T23:55:05.245Z,86.00
2022-11-03T23:57:52.210Z,62.00
